Oakland, MD

2:36 AM EDT on March 28, 2017 (GMT -0400)
Oakland

Weather History for K2G4 - April, 2013

Change the Weather History Date:

Tuesday, April 16, 2013

  Actual Average (KMGW) Record (KMGW)
Temperature  
Mean Temperature 62 °F -  
Max Temperature 73 °F 64 °F 88 °F (2002)
Min Temperature 50 °F 41 °F 25 °F (1950)
Degree Days  
Heating Degree Days 4    
Growing Degree Days 12 (Base 50)    
Moisture  
Dew Point 49 °F    
Average Humidity 72    
Maximum Humidity 100    
Minimum Humidity 36    
Precipitation  
Precipitation 0.00 in - - ()
Sea Level Pressure  
Sea Level Pressure 30.18 in    
Wind  
Wind Speed 14 mph (SSW)    
Max Wind Speed 21 mph    
Max Gust Speed 39 mph    
Visibility 10 miles    
Events Fog    
Averages and records for this station are not official NWS values.
T = Trace of Precipitation, MM = Missing Value Source: NWS Daily Summary

Daily Weather History Graph

Daily Weather History Graph

Search for Another Location

Airport or City:

Trip Planner

Search our weather history database for the weather conditions in past years. The results will help you decide how hot, cold, wet, or windy it might be!

Date:

Astronomy

Apr. 16, 2013 Rise Set
Actual Time 6:38 AM EDT 7:56 PM EDT
Civil Twilight 6:10 AM EDT 8:24 PM EDT
Nautical Twilight 5:36 AM EDT 8:58 PM EDT
Astronomical Twilight 5:01 AM EDT 9:33 PM EDT
Moon 10:55 AM EDT (4/16) 12:51 AM EDT (4/16)
Length of Visible Light 14h 14m
Length of Day
13h 18m
Waxing Crescent, 33% of the Moon is Illuminated
Apr 16
Waxing Crescent
Apr 18
First Quarter
Apr 25
Full
May 2
Last Quarter
May 9
New

Hourly Weather History & Observations

Time (EDT) Temp. Dew Point Humidity Pressure Visibility Wind Dir Wind Speed Gust Speed Precip Events Conditions
12:15 AM 50.0 °F 50.0 °F 100% 30.18 in 10.0 mi SSE 20.7 mph 27.6 mph N/A   Overcast
12:35 AM 50.0 °F 50.0 °F 100% 30.17 in 10.0 mi SSE 17.3 mph 25.3 mph N/A   Overcast
12:55 AM 50.0 °F 50.0 °F 100% 30.17 in 10.0 mi SSE 20.7 mph 27.6 mph N/A   Overcast
1:15 AM 50.0 °F 50.0 °F 100% 30.16 in 10.0 mi SSE 17.3 mph 28.8 mph N/A   Overcast
1:35 AM 50.0 °F 50.0 °F 100% 30.16 in 10.0 mi SE 20.7 mph 26.5 mph N/A   Overcast
1:55 AM 50.0 °F 50.0 °F 100% 30.16 in 10.0 mi SSE 18.4 mph 26.5 mph N/A   Overcast
2:15 AM 50.0 °F 50.0 °F 100% 30.16 in 10.0 mi SSE 15.0 mph 25.3 mph N/A   Overcast
2:35 AM 50.0 °F 50.0 °F 100% 30.16 in 10.0 mi SSE 18.4 mph 25.3 mph N/A   Overcast
2:55 AM 50.0 °F 50.0 °F 100% 30.15 in 10.0 mi SSE 16.1 mph 24.2 mph N/A   Scattered Clouds
3:15 AM 50.0 °F 50.0 °F 100% 30.15 in 10.0 mi SSE 16.1 mph 24.2 mph N/A   Clear
3:35 AM 50.0 °F 50.0 °F 100% 30.15 in 10.0 mi SE 16.1 mph 24.2 mph N/A   Clear
3:55 AM 50.0 °F 50.0 °F 100% 30.15 in 10.0 mi SSE 16.1 mph 23.0 mph N/A   Clear
4:15 AM 50.0 °F 50.0 °F 100% 30.15 in 10.0 mi SSE 12.7 mph - N/A   Clear
4:35 AM 50.0 °F 50.0 °F 100% 30.15 in 10.0 mi SSE 15.0 mph - N/A   Clear
4:55 AM 50.0 °F 50.0 °F 100% 30.16 in 10.0 mi SE 12.7 mph - N/A   Clear
5:15 AM 50.0 °F 50.0 °F 100% 30.16 in 10.0 mi SSE 15.0 mph - N/A   Clear
5:35 AM 50.0 °F 50.0 °F 100% 30.16 in 10.0 mi SSE 12.7 mph - N/A   Clear
5:55 AM 50.0 °F 50.0 °F 100% 30.16 in 10.0 mi SSE 13.8 mph - N/A   Clear
6:15 AM 50.0 °F 50.0 °F 100% 30.17 in 10.0 mi SSE 11.5 mph 19.6 mph N/A   Scattered Clouds
6:35 AM 50.0 °F 50.0 °F 100% 30.18 in 10.0 mi SSE 12.7 mph - N/A   Mostly Cloudy
6:55 AM 50.0 °F 50.0 °F 100% 30.19 in 10.0 mi SSE 13.8 mph - N/A   Mostly Cloudy
7:15 AM 50.0 °F 50.0 °F 100% 30.20 in 10.0 mi SSE 15.0 mph - N/A   Mostly Cloudy
7:35 AM 50.0 °F 50.0 °F 100% 30.20 in 10.0 mi SSE 15.0 mph - N/A   Mostly Cloudy
7:55 AM 50.0 °F 50.0 °F 100% 30.21 in 10.0 mi SSE 12.7 mph - N/A   Scattered Clouds
8:15 AM 53.6 °F 53.6 °F 100% 30.21 in 10.0 mi SSE 12.7 mph - N/A   Scattered Clouds
8:35 AM 53.6 °F 51.8 °F 94% 30.21 in 10.0 mi SSE 11.5 mph - N/A   Scattered Clouds
8:55 AM 55.4 °F 50.0 °F 82% 30.22 in 10.0 mi South 11.5 mph - N/A   Clear
9:15 AM 59.0 °F 50.0 °F 72% 30.21 in 10.0 mi South 10.4 mph - N/A   Clear
9:35 AM 60.8 °F 50.0 °F 68% 30.22 in 10.0 mi SSW 11.5 mph 17.3 mph N/A   Clear
9:55 AM 60.8 °F 50.0 °F 68% 30.22 in 10.0 mi SSW 9.2 mph - N/A   Scattered Clouds
10:15 AM 64.4 °F 50.0 °F 59% 30.22 in 10.0 mi SW 8.1 mph - N/A   Mostly Cloudy
10:35 AM 64.4 °F 48.2 °F 56% 30.22 in 10.0 mi SW 11.5 mph - N/A   Overcast
10:55 AM 66.2 °F 48.2 °F 52% 30.22 in 10.0 mi WSW 13.8 mph 17.3 mph N/A   Mostly Cloudy
11:15 AM 68.0 °F 48.2 °F 49% 30.23 in 10.0 mi WSW 11.5 mph 18.4 mph N/A   Mostly Cloudy
11:40 AM 64.4 °F 48.2 °F 56% 30.23 in 10.0 mi WSW 13.8 mph 23.0 mph N/A   Overcast
12:00 PM 66.2 °F 48.2 °F 52% 30.23 in 10.0 mi WSW 12.7 mph 21.9 mph N/A   Mostly Cloudy
12:20 PM 66.2 °F 48.2 °F 52% 30.23 in 10.0 mi West 13.8 mph 20.7 mph N/A   Mostly Cloudy
12:40 PM 68.0 °F 48.2 °F 49% 30.23 in 10.0 mi SW 10.4 mph 20.7 mph N/A   Scattered Clouds
1:00 PM 68.0 °F 50.0 °F 52% 30.23 in 10.0 mi West 10.4 mph 17.3 mph N/A   Mostly Cloudy
1:20 PM 68.0 °F 48.2 °F 49% 30.23 in 10.0 mi WSW 10.4 mph 17.3 mph N/A   Mostly Cloudy
1:40 PM 68.0 °F 50.0 °F 52% 30.22 in 10.0 mi SW 9.2 mph - N/A   Mostly Cloudy
2:00 PM 69.8 °F 48.2 °F 46% 30.21 in 10.0 mi WSW 8.1 mph - N/A   Scattered Clouds
2:20 PM 69.8 °F 48.2 °F 46% 30.20 in 10.0 mi WSW 9.2 mph 17.3 mph N/A   Scattered Clouds
2:40 PM 71.6 °F 48.2 °F 43% 30.19 in 10.0 mi SW 9.2 mph - N/A   Scattered Clouds
3:00 PM 71.6 °F 48.2 °F 43% 30.18 in 10.0 mi SW 9.2 mph - N/A   Scattered Clouds
3:20 PM 73.4 °F 46.4 °F 38% 30.18 in 10.0 mi WSW 13.8 mph 18.4 mph N/A   Scattered Clouds
3:40 PM 69.8 °F 46.4 °F 43% 30.18 in 10.0 mi West 10.4 mph 18.4 mph N/A   Mostly Cloudy
4:00 PM 71.6 °F 50.0 °F 46% 30.17 in 10.0 mi West 8.1 mph - N/A   Mostly Cloudy
4:20 PM 71.6 °F 50.0 °F 46% 30.16 in 10.0 mi SW 10.4 mph 16.1 mph N/A   Scattered Clouds
4:40 PM 73.4 °F 46.4 °F 38% 30.14 in 10.0 mi SW 11.5 mph 18.4 mph N/A   Clear
5:00 PM 71.6 °F 48.2 °F 43% 30.14 in 10.0 mi SW 15.0 mph - N/A   Clear
5:20 PM 73.4 °F 46.4 °F 38% 30.14 in 10.0 mi SW 9.2 mph 19.6 mph N/A   Clear
5:40 PM 73.4 °F 44.6 °F 36% 30.14 in 10.0 mi SW 11.5 mph 20.7 mph N/A   Clear
6:00 PM 73.4 °F 44.6 °F 36% 30.14 in 10.0 mi WSW 10.4 mph 16.1 mph N/A   Clear
6:20 PM 73.4 °F 44.6 °F 36% 30.14 in 10.0 mi SW 8.1 mph - N/A   Clear
6:40 PM 73.4 °F 44.6 °F 36% 30.14 in 10.0 mi WSW 12.7 mph 18.4 mph N/A   Clear
7:00 PM 69.8 °F 46.4 °F 43% 30.14 in 10.0 mi WSW 6.9 mph 17.3 mph N/A   Clear
7:20 PM 69.8 °F 46.4 °F 43% 30.15 in 10.0 mi West 8.1 mph 17.3 mph N/A   Clear
7:40 PM 68.0 °F 48.2 °F 49% 30.15 in 10.0 mi WSW 9.2 mph - N/A   Clear
8:00 PM 68.0 °F 48.2 °F 49% 30.15 in 10.0 mi WSW 5.8 mph - N/A   Clear
8:20 PM 68.0 °F 48.2 °F 49% 30.15 in 10.0 mi West 4.6 mph - N/A   Clear
8:40 PM 68.0 °F 48.2 °F 49% 30.16 in 10.0 mi WSW 3.5 mph - N/A   Clear
9:00 PM 68.0 °F 48.2 °F 49% 30.16 in 10.0 mi SW 5.8 mph - N/A   Clear
9:20 PM 68.0 °F 50.0 °F 52% 30.18 in 10.0 mi WSW 5.8 mph - N/A   Clear
9:40 PM 68.0 °F 50.0 °F 52% 30.18 in 10.0 mi WSW 4.6 mph - N/A   Scattered Clouds
10:00 PM 62.6 °F 53.6 °F 72% 30.22 in 10.0 mi WNW 17.3 mph 39.1 mph N/A   Overcast
10:20 PM 55.4 °F 55.4 °F 100% 30.25 in 2.0 mi NNW 13.8 mph 26.5 mph N/A   Overcast
10:40 PM 55.4 °F 55.4 °F 100% 30.26 in 1.8 mi NNW 12.7 mph 21.9 mph N/A   Overcast
11:00 PM 53.6 °F 53.6 °F 100% 30.26 in 0.2 mi NNW 9.2 mph - N/A Fog Fog
11:20 PM 53.6 °F 53.6 °F 100% 30.25 in 0.5 mi NW 3.5 mph - N/A Fog Fog
11:40 PM 53.6 °F 53.6 °F 100% 30.23 in 7.0 mi SW 5.8 mph - N/A   Mostly Cloudy